createdAt,value
2019-01-03T00:02:09.479Z,95.90
2019-01-03T00:05:03.685Z,96.00
2019-01-03T00:08:10.392Z,96.10
2019-01-03T00:10:56.396Z,96.30
2019-01-03T00:13:44.697Z,96.40
2019-01-03T00:16:46.791Z,96.60
2019-01-03T00:19:41.738Z,96.80
2019-01-03T00:22:28.835Z,96.90
2019-01-03T00:25:15.872Z,97.10
2019-01-03T00:28:13.281Z,97.10
2019-01-03T00:31:07.444Z,97.30
2019-01-03T00:33:54.591Z,97.40
2019-01-03T00:37:01.261Z,97.60
2019-01-03T00:40:04.832Z,97.80
2019-01-03T00:42:58.875Z,97.80
2019-01-03T00:45:56.353Z,98.00
2019-01-03T00:48:43.300Z,98.20
2019-01-03T00:51:30.355Z,98.30
2019-01-03T00:54:17.215Z,98.30
2019-01-03T00:57:08.261Z,98.60
2019-01-03T01:00:02.311Z,98.60
2019-01-03T01:02:50.613Z,98.60
2019-01-03T01:05:47.935Z,98.70
2019-01-03T01:08:38.969Z,98.70
2019-01-03T01:11:27.549Z,98.80
2019-01-03T01:14:16.931Z,98.70
2019-01-03T01:17:05.786Z,98.80
2019-01-03T01:19:56.168Z,99.00
2019-01-03T01:22:43.165Z,99.00
2019-01-03T01:25:37.229Z,99.10
2019-01-03T01:28:24.383Z,99.20
2019-01-03T01:31:18.744Z,99.20
2019-01-03T01:34:13.119Z,99.40
2019-01-03T01:37:13.688Z,99.30
2019-01-03T01:40:01.730Z,99.20
2019-01-03T01:43:05.297Z,99.30
2019-01-03T01:45:44.873Z,99.40
2019-01-03T01:48:51.426Z,99.40
2019-01-03T01:51:50.160Z,99.40
2019-01-03T01:54:37.380Z,99.40
2019-01-03T01:57:24.324Z,99.40
2019-01-03T02:00:30.973Z,99.30
2019-01-03T02:03:37.133Z,99.40
2019-01-03T02:06:44.811Z,99.60
2019-01-03T02:09:47.098Z,99.70
2019-01-03T02:12:34.276Z,99.70
2019-01-03T02:15:25.225Z,99.80
2019-01-03T02:18:13.580Z,99.70
2019-01-03T02:21:05.023Z,99.80
2019-01-03T02:23:58.717Z,99.80
2019-01-03T02:26:44.314Z,99.90
2019-01-03T02:29:32.567Z,99.90
2019-01-03T02:32:23.652Z,99.90
2019-01-03T02:35:10.531Z,99.90
2019-01-03T02:37:57.353Z,99.90
2019-01-03T02:40:45.667Z,99.90
2019-01-03T02:43:52.028Z,99.90
2019-01-03T02:46:49.383Z,99.90
2019-01-03T02:49:40.715Z,99.90
2019-01-03T02:52:27.654Z,99.90
2019-01-03T02:55:27.996Z,99.90
2019-01-03T02:58:25.517Z,99.90
2019-01-03T03:01:06.178Z,99.90
2019-01-03T03:04:06.604Z,99.90
2019-01-03T03:07:06.994Z,99.90
2019-01-03T03:09:54.439Z,99.90
2019-01-03T03:12:51.609Z,99.90
2019-01-03T03:15:38.861Z,99.90
2019-01-03T03:18:45.584Z,99.90
2019-01-03T03:21:36.411Z,99.90
2019-01-03T03:24:22.461Z,99.90
2019-01-03T03:27:04.029Z,99.90
2019-01-03T03:29:52.196Z,99.90
2019-01-03T03:32:40.609Z,99.90
2019-01-03T03:35:34.732Z,99.90
2019-01-03T03:38:21.577Z,99.90
2019-01-03T03:41:18.982Z,99.90
2019-01-03T03:44:07.274Z,99.90
2019-01-03T03:46:58.287Z,99.90
2019-01-03T03:49:55.817Z,99.90
2019-01-03T03:52:42.795Z,99.90
2019-01-03T03:55:29.690Z,99.90
2019-01-03T03:58:16.618Z,99.90
2019-01-03T04:01:04.926Z,99.90
2019-01-03T04:04:08.261Z,99.90
2019-01-03T04:06:59.373Z,99.90
2019-01-03T04:09:50.464Z,99.90
2019-01-03T04:12:37.626Z,99.90
2019-01-03T04:15:28.788Z,99.90
2019-01-03T04:18:16.100Z,99.90
2019-01-03T04:21:10.613Z,99.90
2019-01-03T04:24:11.276Z,99.90
2019-01-03T04:27:11.616Z,99.90
2019-01-03T04:30:14.957Z,99.90
2019-01-03T04:33:01.861Z,99.90
2019-01-03T04:35:52.933Z,99.90
2019-01-03T04:38:40.034Z,99.90
2019-01-03T04:41:31.438Z,99.90
2019-01-03T04:44:18.622Z,99.90
2019-01-03T04:47:01.635Z,99.90
2019-01-03T04:50:01.867Z,99.90
2019-01-03T04:52:48.993Z,99.90
2019-01-03T04:55:36.112Z,99.90
2019-01-03T04:58:27.596Z,99.90
2019-01-03T05:01:55.462Z,99.90
2019-01-03T05:04:39.645Z,99.90
2019-01-03T05:07:26.945Z,99.90
2019-01-03T05:10:12.749Z,99.90
2019-01-03T05:13:13.404Z,99.90
2019-01-03T05:16:00.506Z,99.90
2019-01-03T05:19:06.995Z,99.90
2019-01-03T05:22:13.459Z,99.90
2019-01-03T05:25:00.265Z,99.90
2019-01-03T05:27:47.743Z,99.90
2019-01-03T05:30:42.257Z,99.90
2019-01-03T05:33:30.493Z,99.90
2019-01-03T05:36:28.054Z,99.90
2019-01-03T05:39:30.135Z,99.90
2019-01-03T05:42:18.455Z,99.90
2019-01-03T05:45:05.413Z,99.90
2019-01-03T05:47:52.146Z,99.90
2019-01-03T05:50:43.279Z,99.90
2019-01-03T05:53:37.439Z,99.90
2019-01-03T05:56:39.756Z,99.90
2019-01-03T05:59:29.547Z,99.90
2019-01-03T06:02:36.072Z,99.90
2019-01-03T06:05:25.102Z,99.90
2019-01-03T06:08:37.020Z,99.90
2019-01-03T06:11:25.453Z,99.90
2019-01-03T06:14:32.026Z,99.90
2019-01-03T06:17:38.293Z,99.90
2019-01-03T06:20:32.956Z,99.90
2019-01-03T06:23:39.651Z,99.90
2019-01-03T06:26:39.695Z,99.90
2019-01-03T06:29:33.924Z,99.90
2019-01-03T06:32:25.259Z,99.90
2019-01-03T06:35:19.533Z,99.90
2019-01-03T06:38:01.104Z,99.90
2019-01-03T06:40:47.963Z,99.90
2019-01-03T06:43:35.271Z,99.90
2019-01-03T06:46:22.682Z,99.90
2019-01-03T06:49:13.961Z,99.90
2019-01-03T06:52:02.305Z,99.90
2019-01-03T06:55:05.756Z,99.90
2019-01-03T06:58:03.392Z,99.90
2019-01-03T07:00:46.944Z,99.90
2019-01-03T07:03:35.277Z,99.90
2019-01-03T07:06:22.201Z,99.90
2019-01-03T07:09:09.127Z,99.90
2019-01-03T07:11:53.929Z,99.90
2019-01-03T07:14:45.067Z,99.90
2019-01-03T07:17:42.572Z,99.90
2019-01-03T07:20:40.151Z,99.90
2019-01-03T07:23:28.530Z,99.90
2019-01-03T07:26:23.195Z,99.90
2019-01-03T07:29:14.332Z,99.90
2019-01-03T07:32:01.605Z,99.90
2019-01-03T07:34:48.934Z,99.90
2019-01-03T07:37:37.227Z,99.90
2019-01-03T07:40:28.587Z,99.90
2019-01-03T07:43:15.872Z,99.90
2019-01-03T07:45:59.699Z,99.90
2019-01-03T07:48:53.953Z,99.90
2019-01-03T07:51:45.077Z,99.90
2019-01-03T07:54:38.218Z,99.90
2019-01-03T07:57:26.537Z,99.90
2019-01-03T08:00:17.898Z,99.90
2019-01-03T08:03:05.126Z,99.90
2019-01-03T08:05:49.793Z,99.90
2019-01-03T08:08:47.324Z,99.90
2019-01-03T08:11:51.055Z,99.90
2019-01-03T08:14:45.544Z,99.90
2019-01-03T08:17:37.118Z,99.90
2019-01-03T08:20:24.751Z,99.90
2019-01-03T08:23:22.340Z,99.90
2019-01-03T08:26:22.932Z,99.90
2019-01-03T08:29:17.067Z,99.90
2019-01-03T08:32:14.808Z,99.90
2019-01-03T08:35:21.431Z,99.90
2019-01-03T08:38:09.807Z,99.90
2019-01-03T08:41:00.883Z,99.90
2019-01-03T08:43:52.323Z,99.90
2019-01-03T08:46:39.159Z,99.90
2019-01-03T08:49:30.369Z,99.90
2019-01-03T08:52:17.525Z,99.90
2019-01-03T08:55:05.017Z,99.90
2019-01-03T08:57:52.146Z,99.90
2019-01-03T09:00:48.076Z,99.90
2019-01-03T09:03:35.411Z,99.90
2019-01-03T09:06:22.400Z,99.90
2019-01-03T09:09:07.003Z,99.90
2019-01-03T09:12:10.599Z,99.90
2019-01-03T09:14:56.424Z,99.90
2019-01-03T09:17:45.526Z,99.90
2019-01-03T09:20:46.201Z,99.90
2019-01-03T09:23:46.597Z,99.90
2019-01-03T09:26:33.923Z,99.90
2019-01-03T09:29:28.427Z,99.90
2019-01-03T09:32:22.718Z,99.90
2019-01-03T09:35:23.179Z,99.90
2019-01-03T09:38:10.130Z,99.90
2019-01-03T09:40:57.133Z,99.90
2019-01-03T09:44:03.893Z,99.90
2019-01-03T09:46:33.335Z,99.90
2019-01-03T09:49:02.715Z,99.90
2019-01-03T09:51:32.093Z,99.90
2019-01-03T09:54:01.436Z,99.90
2019-01-03T09:56:31.021Z,99.90
2019-01-03T09:59:00.389Z,99.90
2019-01-03T10:01:29.737Z,99.90
2019-01-03T10:03:59.115Z,99.90
2019-01-03T10:06:28.513Z,99.90
2019-01-03T10:08:57.889Z,99.90
2019-01-03T10:11:27.279Z,99.90
2019-01-03T10:14:00.672Z,99.90
2019-01-03T10:16:30.132Z,99.90
2019-01-03T10:18:59.433Z,99.90
2019-01-03T10:21:30.153Z,99.90
2019-01-03T10:23:59.564Z,99.90
2019-01-03T10:26:28.964Z,99.90
2019-01-03T10:28:58.348Z,99.90
2019-01-03T10:31:27.752Z,99.90
2019-01-03T10:33:57.078Z,99.90
2019-01-03T10:36:27.468Z,99.90
2019-01-03T10:38:57.085Z,99.90
2019-01-03T10:41:26.418Z,99.90
2019-01-03T10:43:55.772Z,99.90
2019-01-03T10:46:25.093Z,99.90
2019-01-03T10:48:54.453Z,99.90
2019-01-03T10:51:23.821Z,99.90
2019-01-03T10:53:53.246Z,99.90
2019-01-03T10:56:22.596Z,99.90
2019-01-03T10:58:51.972Z,99.90
2019-01-03T11:01:21.429Z,99.90
2019-01-03T11:03:50.766Z,99.90
2019-01-03T11:06:20.118Z,99.90
2019-01-03T11:08:49.469Z,99.90
2019-01-03T11:11:18.795Z,99.90
2019-01-03T11:13:55.935Z,99.90
2019-01-03T11:16:28.160Z,99.90
2019-01-03T11:18:59.541Z,99.90
2019-01-03T11:21:31.108Z,99.90
2019-01-03T11:24:02.092Z,99.90
2019-01-03T11:26:32.802Z,99.90
2019-01-03T11:29:02.165Z,99.90
2019-01-03T11:31:31.556Z,99.90
2019-01-03T11:34:00.915Z,99.90
2019-01-03T11:36:30.312Z,99.90
2019-01-03T11:38:59.844Z,99.90
2019-01-03T11:41:29.289Z,99.90
2019-01-03T11:43:58.761Z,99.90
2019-01-03T11:46:34.500Z,99.90
2019-01-03T11:49:04.158Z,99.90
2019-01-03T11:51:34.061Z,99.90
2019-01-03T11:54:05.054Z,99.90
2019-01-03T11:56:34.601Z,99.90
2019-01-03T11:59:04.274Z,99.90
2019-01-03T12:01:33.902Z,99.90
2019-01-03T12:04:05.021Z,99.90
2019-01-03T12:06:34.828Z,99.90
2019-01-03T12:09:05.501Z,99.90
2019-01-03T12:11:34.873Z,99.90
2019-01-03T12:14:04.482Z,99.90
2019-01-03T12:16:34.043Z,99.90
2019-01-03T12:19:04.510Z,99.90
2019-01-03T12:21:33.880Z,99.90
2019-01-03T12:24:04.533Z,99.90
2019-01-03T12:26:33.857Z,99.90
2019-01-03T12:29:03.181Z,99.90
2019-01-03T12:31:32.581Z,99.90
2019-01-03T12:34:01.939Z,99.90
2019-01-03T12:36:31.353Z,99.90
2019-01-03T12:39:00.690Z,99.90
2019-01-03T12:41:30.041Z,99.90
2019-01-03T12:43:59.391Z,99.90
2019-01-03T12:46:28.795Z,99.90
2019-01-03T12:48:58.202Z,99.90
2019-01-03T12:51:27.753Z,99.90
2019-01-03T12:53:57.229Z,99.90
2019-01-03T12:56:26.750Z,99.90
2019-01-03T12:58:56.148Z,99.90
2019-01-03T13:01:25.536Z,99.90
2019-01-03T13:03:55.077Z,99.90
2019-01-03T13:06:24.754Z,99.90
2019-01-03T13:08:54.597Z,99.90
2019-01-03T13:11:23.936Z,99.90
2019-01-03T13:13:53.291Z,99.90
2019-01-03T13:16:22.829Z,99.90
2019-01-03T13:18:53.595Z,99.90
2019-01-03T13:21:23.335Z,99.90
2019-01-03T13:23:52.911Z,99.90
2019-01-03T13:26:26.376Z,99.90
2019-01-03T13:28:55.905Z,99.90
2019-01-03T13:31:32.712Z,99.90
2019-01-03T13:34:05.110Z,99.90
2019-01-03T13:36:49.614Z,99.90
2019-01-03T13:39:19.043Z,99.90
2019-01-03T13:41:48.354Z,99.90
2019-01-03T13:44:17.765Z,99.90
2019-01-03T13:46:47.125Z,99.90
2019-01-03T13:49:16.604Z,99.90
2019-01-03T13:51:48.497Z,99.90
2019-01-03T13:54:17.878Z,99.90
2019-01-03T13:56:47.286Z,99.90
2019-01-03T13:59:16.717Z,99.90
2019-01-03T14:01:46.111Z,99.90
2019-01-03T14:04:15.825Z,99.90
2019-01-03T14:06:45.370Z,99.90
2019-01-03T14:09:14.785Z,99.90
2019-01-03T14:11:44.258Z,99.90
2019-01-03T14:14:13.644Z,99.90
2019-01-03T14:16:43.057Z,99.90
2019-01-03T14:19:12.380Z,99.90
2019-01-03T14:21:41.743Z,99.90
2019-01-03T14:24:11.131Z,99.90
2019-01-03T14:26:40.600Z,99.90
2019-01-03T14:29:09.946Z,99.90
2019-01-03T14:31:39.353Z,99.90
2019-01-03T14:34:08.761Z,99.90
2019-01-03T14:36:38.116Z,99.90
2019-01-03T14:39:08.167Z,99.90
2019-01-03T14:41:37.562Z,99.90
2019-01-03T14:44:06.989Z,99.90
2019-01-03T14:46:36.389Z,99.90
2019-01-03T14:49:05.712Z,99.90
2019-01-03T14:51:35.048Z,99.90
2019-01-03T14:54:04.598Z,99.90
2019-01-03T14:56:37.052Z,99.90
2019-01-03T14:59:06.427Z,99.90
2019-01-03T15:01:35.760Z,99.90
2019-01-03T15:04:06.307Z,99.90
2019-01-03T15:06:38.857Z,99.90
2019-01-03T15:09:08.458Z,99.90
2019-01-03T15:11:39.597Z,99.90
2019-01-03T15:14:09.097Z,99.90
2019-01-03T15:16:38.521Z,99.90
2019-01-03T15:19:07.916Z,99.90
2019-01-03T15:21:38.997Z,99.90
2019-01-03T15:24:08.358Z,99.90
2019-01-03T15:26:42.841Z,99.90
2019-01-03T15:29:12.266Z,99.90
2019-01-03T15:31:44.609Z,99.90
2019-01-03T15:34:14.027Z,99.90
2019-01-03T15:36:43.412Z,99.90
2019-01-03T15:39:13.026Z,99.90
2019-01-03T15:41:42.442Z,99.90
2019-01-03T15:44:11.830Z,99.90
2019-01-03T15:46:41.211Z,99.90
2019-01-03T15:49:12.380Z,99.90
2019-01-03T15:51:41.792Z,99.90
2019-01-03T15:54:11.293Z,99.90
2019-01-03T15:56:40.642Z,99.90
2019-01-03T15:59:10.056Z,99.90
2019-01-03T16:01:39.389Z,99.90
2019-01-03T16:04:08.829Z,99.90
2019-01-03T16:06:38.181Z,99.90
2019-01-03T16:09:07.842Z,99.90
2019-01-03T16:11:37.214Z,99.90
2019-01-03T16:14:06.599Z,99.90
2019-01-03T16:16:36.089Z,99.90
2019-01-03T16:19:05.411Z,99.90
2019-01-03T16:21:34.844Z,99.90
2019-01-03T16:24:04.306Z,99.90
2019-01-03T16:26:34.105Z,99.90
2019-01-03T16:29:03.801Z,99.90
2019-01-03T16:31:33.227Z,99.90
2019-01-03T16:34:02.603Z,99.90
2019-01-03T16:36:33.754Z,99.90
2019-01-03T16:39:03.573Z,99.90
2019-01-03T16:41:32.919Z,99.90
2019-01-03T16:44:02.668Z,99.90
2019-01-03T16:46:32.074Z,99.90
2019-01-03T16:49:01.577Z,99.90
2019-01-03T16:51:31.173Z,99.90
2019-01-03T16:54:00.712Z,99.90
2019-01-03T16:56:30.199Z,99.90
2019-01-03T16:58:59.682Z,99.90
2019-01-03T17:01:29.248Z,99.90
2019-01-03T17:03:58.940Z,99.90
2019-01-03T17:06:30.491Z,99.90
2019-01-03T17:09:00.810Z,99.90
2019-01-03T17:11:30.362Z,99.90
2019-01-03T17:13:59.925Z,99.90
2019-01-03T17:16:29.686Z,99.90
2019-01-03T17:18:59.314Z,99.90
2019-01-03T17:21:28.809Z,99.90
2019-01-03T17:23:58.537Z,99.90
2019-01-03T17:26:28.315Z,99.90
2019-01-03T17:28:58.021Z,99.90
2019-01-03T17:31:27.647Z,99.90
2019-01-03T17:33:57.274Z,99.90
2019-01-03T17:36:26.980Z,99.90
2019-01-03T17:38:56.454Z,99.90
2019-01-03T17:41:27.823Z,99.90
2019-01-03T17:43:57.256Z,99.90
2019-01-03T17:46:26.598Z,99.90
2019-01-03T17:48:56.016Z,99.90
2019-01-03T17:51:25.383Z,99.90
2019-01-03T17:53:54.802Z,99.90
2019-01-03T17:56:25.446Z,99.90
2019-01-03T17:58:54.879Z,99.90
2019-01-03T18:01:24.339Z,99.90
2019-01-03T18:03:54.003Z,99.90
2019-01-03T18:06:23.398Z,99.90
2019-01-03T18:08:52.802Z,99.90
2019-01-03T18:11:22.242Z,99.90
2019-01-03T18:13:51.785Z,99.90
2019-01-03T18:16:21.346Z,99.90
2019-01-03T18:18:50.862Z,99.90
2019-01-03T18:21:20.216Z,99.90
2019-01-03T18:23:49.605Z,99.90
2019-01-03T18:26:19.122Z,99.90
2019-01-03T18:28:48.509Z,99.90
2019-01-03T18:31:17.898Z,99.90
2019-01-03T18:33:47.296Z,99.90
2019-01-03T18:36:16.720Z,99.90
2019-01-03T18:38:46.097Z,99.90
2019-01-03T18:41:17.626Z,99.90
2019-01-03T18:43:48.663Z,99.90
2019-01-03T18:46:18.257Z,99.90
2019-01-03T18:48:49.405Z,99.90
2019-01-03T18:51:19.274Z,99.90
2019-01-03T18:53:48.829Z,99.90
2019-01-03T18:56:21.460Z,99.90
2019-01-03T18:58:51.018Z,99.90
2019-01-03T19:01:20.657Z,99.90
2019-01-03T19:03:50.023Z,99.90
2019-01-03T19:06:19.576Z,99.90
2019-01-03T19:08:49.147Z,99.90
2019-01-03T19:11:18.793Z,99.90
2019-01-03T19:13:48.472Z,99.90
2019-01-03T19:16:17.906Z,99.90
2019-01-03T19:18:47.401Z,99.90
2019-01-03T19:21:16.979Z,99.90
2019-01-03T19:23:46.443Z,99.90
2019-01-03T19:26:15.854Z,99.90
2019-01-03T19:28:45.384Z,99.90
2019-01-03T19:31:15.063Z,99.90
2019-01-03T19:33:44.483Z,99.90
2019-01-03T19:36:14.490Z,99.90
2019-01-03T19:38:44.059Z,99.90
2019-01-03T19:41:13.444Z,99.90
2019-01-03T19:43:42.968Z,99.90
2019-01-03T19:46:12.421Z,99.90
2019-01-03T19:48:41.836Z,99.90
2019-01-03T19:51:11.523Z,99.90
2019-01-03T19:53:40.908Z,99.90
2019-01-03T19:56:10.232Z,99.90
2019-01-03T19:58:39.641Z,99.90
2019-01-03T20:01:09.053Z,99.90
2019-01-03T20:03:38.494Z,99.90
2019-01-03T20:06:07.961Z,99.90
2019-01-03T20:08:37.329Z,99.90
2019-01-03T20:11:06.774Z,99.90
2019-01-03T20:13:36.122Z,99.90
2019-01-03T20:16:05.596Z,99.90
2019-01-03T20:18:34.939Z,99.90
2019-01-03T20:21:04.340Z,99.90
2019-01-03T20:23:33.785Z,99.90
2019-01-03T20:26:03.324Z,99.90
2019-01-03T20:28:33.705Z,99.90
2019-01-03T20:31:03.170Z,99.90
2019-01-03T20:33:32.598Z,99.90
2019-01-03T20:36:02.200Z,99.90
2019-01-03T20:38:31.572Z,99.90
2019-01-03T20:41:01.369Z,99.90
2019-01-03T20:43:30.863Z,99.90
2019-01-03T20:46:00.296Z,99.90
2019-01-03T20:48:29.693Z,99.90
2019-01-03T20:50:59.235Z,99.90
2019-01-03T20:53:28.802Z,99.90
2019-01-03T20:55:58.517Z,99.90
2019-01-03T20:58:31.154Z,99.90
2019-01-03T21:01:00.708Z,99.90
2019-01-03T21:03:30.140Z,99.90
2019-01-03T21:05:59.554Z,99.90
2019-01-03T21:08:29.073Z,99.90
2019-01-03T21:10:58.492Z,99.90
2019-01-03T21:13:28.286Z,99.90
2019-01-03T21:15:57.777Z,99.90
2019-01-03T21:18:27.206Z,99.90
2019-01-03T21:20:59.555Z,99.90
2019-01-03T21:23:29.068Z,99.90
2019-01-03T21:26:00.293Z,99.90
2019-01-03T21:28:30.186Z,99.90
2019-01-03T21:30:59.698Z,99.90
2019-01-03T21:33:29.484Z,99.90
2019-01-03T21:35:58.920Z,99.90
2019-01-03T21:38:28.369Z,99.90
2019-01-03T21:41:01.304Z,99.90
2019-01-03T21:43:30.911Z,99.90
2019-01-03T21:46:00.425Z,99.90
2019-01-03T21:48:29.868Z,99.90
2019-01-03T21:51:01.049Z,99.90
2019-01-03T21:53:30.641Z,99.90
2019-01-03T21:56:00.021Z,99.90
2019-01-03T21:58:29.511Z,99.90
2019-01-03T22:00:58.956Z,99.90
2019-01-03T22:03:29.920Z,99.90
2019-01-03T22:05:59.317Z,99.90
2019-01-03T22:08:28.702Z,99.90
2019-01-03T22:10:58.198Z,99.90
2019-01-03T22:13:27.584Z,99.90
2019-01-03T22:15:56.937Z,99.90
2019-01-03T22:18:26.329Z,99.90
2019-01-03T22:20:55.672Z,99.90
2019-01-03T22:23:25.133Z,99.90
2019-01-03T22:25:54.475Z,99.90
2019-01-03T22:28:23.809Z,99.90
2019-01-03T22:30:53.200Z,99.90
2019-01-03T22:33:22.540Z,99.90
2019-01-03T22:35:51.945Z,99.90
2019-01-03T22:38:21.266Z,99.90
2019-01-03T22:40:50.643Z,99.90
2019-01-03T22:43:19.994Z,99.90
2019-01-03T22:45:49.450Z,99.90
2019-01-03T22:48:18.815Z,99.90
2019-01-03T22:50:48.204Z,99.90
2019-01-03T22:53:17.567Z,99.90
2019-01-03T22:55:47.032Z,99.90
2019-01-03T22:58:16.470Z,99.90
2019-01-03T23:00:49.088Z,99.90
2019-01-03T23:03:18.435Z,99.90
2019-01-03T23:05:47.762Z,99.90
2019-01-03T23:08:17.070Z,99.90
2019-01-03T23:10:46.423Z,99.90
2019-01-03T23:13:15.761Z,99.90
2019-01-03T23:15:45.226Z,99.90
2019-01-03T23:18:14.537Z,99.90
2019-01-03T23:20:43.896Z,99.90
2019-01-03T23:23:13.217Z,99.90
2019-01-03T23:25:42.593Z,99.90
2019-01-03T23:28:11.984Z,99.90
2019-01-03T23:30:45.423Z,99.90
2019-01-03T23:33:14.820Z,99.90
2019-01-03T23:35:45.403Z,99.90
2019-01-03T23:38:14.719Z,99.90
2019-01-03T23:40:44.049Z,99.90
2019-01-03T23:43:13.378Z,99.90
2019-01-03T23:45:42.731Z,99.90
2019-01-03T23:48:12.200Z,99.90
2019-01-03T23:50:41.542Z,99.90
2019-01-03T23:53:10.893Z,99.90
2019-01-03T23:55:45.427Z,99.90
2019-01-03T23:58:14.917Z,99.90
